Alta Loma, CA (91701)

5:18 PM PST on March 03, 2015 (GMT -0800)
Amethyst at Manzanita | Change Station
CLOSE
Current Station
Personal Weather Station
Location: Alta Loma, CA
Elevation: 1775 ft
Nearby Weather Stations

Elev 1775 ft 34.15 °N, 117.60 °W | Updated 5 seconds ago

Clear
Clear
57.7 °F
Feels Like 57.7 °F
N
8.0
Wind Variable Wind from West
Gusts 10.0 mph

Today
High -- | Low -- °F
--% Chance of Precip.
Yesterday
High -- | Low -- °F
Precip. -- in
6:16 AM 5:48 PM
Waxing Gibbous, 97% visible
Pressure 29.86 in
Visibility 10.0 miles
Clouds Few 8500 ft
Few 10000 ft
Dew Point 40 °F
Humidity 52%
Rainfall 0.00 in
Snow Depth Not available.
UV 0 out of 12
Pollen 8.60 out of 12
Air Quality Not available.
Flu Activity Not available.
METAR KONT 040053Z 22013KT 10SM FEW085 FEW100 16/05 A2986 RMK AO2 SLP109 T01610050

More Conditions Fewer Conditions

Pressure 29.86 in
Visibility 10.0 miles
Clouds Few 8500 ft
Few 10000 ft
Dew Point 40 °F
Humidity 52%
Rainfall 0.00 in
Snow Depth Not available.
UV 0 out of 12
Pollen 8.60 out of 12
Air Quality Not available.
Flu Activity Not available.
METAR KONT 040053Z 22013KT 10SM FEW085 FEW100 16/05 A2986 RMK AO2 SLP109 T01610050

More Conditions Fewer Conditions

10-Day Weather Forecast

Almanac

Astronomy

Mar. 03, 2015 Rise Set
Actual Time
Civil Twilight
Nautical Twilight
Astronomical Twilight
Moon
Length of Visible Light
Length of Day
Tomorrow will be .
, % of the Moon is Illuminated

Today's Extremes

State Highs State Lows

Community

WunderPhotos

Upload Photos

1,802,340 photos uploaded!

WunderBlogs® & News

Nearby

Air Quality

  Air Quality AQ Index Pollutant
Not available.

Snow Depth

Station Depth Elevation

Earthquake Activity

City Distance Mag. Time & Date
Minimum magnitude displayed is 2.5.

Coastal Water Temperatures

Place Temperature

Nearby Weather Stations